Αναφορές METAR Αεροδρομίων

 

LGTS - THESSALONIKI - GREECE
Ενημερώθηκε: 21/01/2021 13:20
Αραιές Νεφώσεις
Αραιές Νεφώσεις
 Ανεμος από varies
Ανεμος: varies 4 km/h
Θερμοκρασία: 8°C
Σημ. Δρόσου: 1°C
Υγρασία: 62%
Βαρόμετρο: 1025 hPa
Clouds: Αραιές Νεφώσεις
Visibility: 10 km
Cloud details: Αραιές Νεφώσεις 762 m
2021/01/21 11:20 LGTS 211120Z VRB02KT 9999 FEW025 08/01 Q1025 NOSIG
LGLR - LARTISA - GREECE
Ενημερώθηκε: 20/01/2021 20:50
NOT Current
Αίθριος
Αίθριος
 Ανεμος από calm
Ανεμος: Απνοια
Θερμοκρασία: 3°C
Σημ. Δρόσου: -1°C
Υγρασία: 75%
Βαρόμετρο: 1026 hPa
Περίληψη: Αίθριος
Visibility: greater than 10 km
2021/01/20 18:50 LGLR 201850Z 00000KT CAVOK 03/M01 Q1026 BLU
 
LGKZ - KOZANI - GREECE
Ενημερώθηκε: 21/01/2021 12:50
Σχεδόν νεφελώδης
Σχεδόν νεφελώδης
 Ανεμος από calm
Ανεμος: Απνοια
Θερμοκρασία: 7°C
Σημ. Δρόσου: -1°C
Υγρασία: 57%
Βαρόμετρο: 1024 hPa
Clouds: Σχεδόν νεφελώδης
Visibility: 10 km
Cloud details: Μερικώς νεφελώδης 610 m
Σχεδόν νεφελώδης 2134 m
2021/01/21 10:50 LGKZ 211050Z 00000KT 9999 SCT020 BKN070 07/M01 Q1024
LGKV - KAVALA - GREECE
Ενημερώθηκε: 21/01/2021 13:20
Αραιές Νεφώσεις
Αραιές Νεφώσεις
 Ανεμος από ΔΝΔ
Ανεμος: ΔΝΔ 11 km/h
Θερμοκρασία: 11°C
Σημ. Δρόσου: 4°C
Υγρασία: 62%
Βαρόμετρο: 1024 hPa
Clouds: Αραιές Νεφώσεις
Visibility: 10 km
Cloud details: Αραιές Νεφώσεις 914 m
2021/01/21 11:20 LGKV 211120Z 24006KT 9999 FEW030 11/04 Q1024
 
LGIO - IOANNINA - GREECE
Ενημερώθηκε: 21/01/2021 13:20
Ασθενής βροχή, Συννεφιά
Ασθενής βροχή, Συννεφιά
 Ανεμος από ΝΑ
Ανεμος: ΝΑ 9 km/h
Θερμοκρασία: 8°C
Wind Chill: 6°C
Σημ. Δρόσου: 7°C
Υγρασία: 93%
Βαρόμετρο: 1025 hPa
Περίληψη: Ασθενής βροχή
Clouds: Συννεφιά
Visibility: 7 km
Cloud details: Αραιές Νεφώσεις 122 m
Μερικώς νεφελώδης 457 m
Συννεφιά 762 m
2021/01/21 11:20 LGIO 211120Z 13005KT 7000 -RA FEW004 SCT015 OVC025 08/07 Q1025
LGBL - BOLOS - GREECE
Ενημερώθηκε: 21/01/2021 13:20
Αραιές Νεφώσεις
Αραιές Νεφώσεις
 Ανεμος από Α
Ανεμος: Α 9 km/h
Θερμοκρασία: 14°C
Σημ. Δρόσου: 4°C
Υγρασία: 51%
Βαρόμετρο: 1025 hPa
Clouds: Αραιές Νεφώσεις
Visibility: 10 km
Cloud details: Αραιές Νεφώσεις 762 m
2021/01/21 11:20 LGBL 211120Z 08005KT 9999 FEW025 14/04 Q1025
 
LGMT - MITILINI - GREECE
Ενημερώθηκε: 21/01/2021 13:20
Μερικώς νεφελώδης
Μερικώς νεφελώδης
 Ανεμος από ΝΝΑ
Ανεμος: ΝΝΑ 15 km/h
Θερμοκρασία: 11°C
Σημ. Δρόσου: 4°C
Υγρασία: 62%
Βαρόμετρο: 1028 hPa
Clouds: Μερικώς νεφελώδης
Visibility: 10 km
Cloud details: Μερικώς νεφελώδης 762 m
2021/01/21 11:20 LGMT 211120Z 15008KT 9999 SCT025 11/04 Q1028
LGAV - ATHENS - GREECE
Ενημερώθηκε: 21/01/2021 13:50
Αίθριος
Αίθριος
 Ανεμος από ΝΝΔ
Ανεμος: ΝΝΔ 20 km/h
Θερμοκρασία: 15°C
Σημ. Δρόσου: 3°C
Υγρασία: 45%
Βαρόμετρο: 1026 hPa
Περίληψη: Αίθριος
Visibility: greater than 10 km
2021/01/21 11:50 LGAV 211150Z 21011KT CAVOK 15/03 Q1026 NOSIG
 
LGRP - RODOS - GREECE
Ενημερώθηκε: 21/01/2021 13:20
Αραιές Νεφώσεις
Αραιές Νεφώσεις
 Ανεμος από varies
Ανεμος: varies 4 km/h
Θερμοκρασία: 14°C
Σημ. Δρόσου: 5°C
Υγρασία: 55%
Βαρόμετρο: 1029 hPa
Clouds: Αραιές Νεφώσεις
Visibility: 10 km
Cloud details: Αραιές Νεφώσεις 610 m
2021/01/21 11:20 LGRP 211120Z VRB02KT 9999 FEW020 14/05 Q1029 NOSIG
LGIR - HRAKLIO/KRITI - GREECE
Ενημερώθηκε: 21/01/2021 13:50
Μερικώς νεφελώδης
Μερικώς νεφελώδης
 Ανεμος από ΒΔ
Ανεμος: ΒΔ 19 km/h
Θερμοκρασία: 16°C
Σημ. Δρόσου: 7°C
Υγρασία: 55%
Βαρόμετρο: 1028 hPa
Clouds: Μερικώς νεφελώδης
Visibility: 10 km
Cloud details: Μερικώς νεφελώδης 762 m
2021/01/21 11:50 LGIR 211150Z 31010KT 9999 SCT025 16/07 Q1028 NOSIG
 
LGMK - MIKONOS - GREECE
Ενημερώθηκε: 21/01/2021 13:20
Αραιές Νεφώσεις
Αραιές Νεφώσεις
 Ανεμος από ΔΝΔ
Ανεμος: ΔΝΔ 17 km/h
Θερμοκρασία: 15°C
Σημ. Δρόσου: 6°C
Υγρασία: 55%
Βαρόμετρο: 1027 hPa
Clouds: Αραιές Νεφώσεις
Visibility: 10 km
Cloud details: Αραιές Νεφώσεις 549 m
2021/01/21 11:20 LGMK 211120Z 24009KT 9999 FEW018 15/06 Q1027
LGKR - KERKIRA - GREECE
Ενημερώθηκε: 21/01/2021 13:50
Σχεδόν νεφελώδης
Σχεδόν νεφελώδης
 Ανεμος από ΝΝΑ
Ανεμος: ΝΝΑ 19 km/h
Θερμοκρασία: 13°C
Σημ. Δρόσου: 11°C
Υγρασία: 88%
Βαρόμετρο: 1024 hPa
Clouds: Σχεδόν νεφελώδης
Visibility: 10 km
Cloud details: Αραιές Νεφώσεις 366 m
Μερικώς νεφελώδης 549 m
Σχεδόν νεφελώδης 762 m
2021/01/21 11:50 LGKR 211150Z 16010KT 9999 FEW012 SCT018TCU BKN025 13/11 Q1024 NOSIG